sensor_id;sensor_type;location;lat;lon;timestamp;P1;durP1;ratioP1;P2;durP2;ratioP2
14292;SDS011;62290;59.420;17.842;2022-09-09T00:01:59;0.40;;;0.40;;
14292;SDS011;62290;59.420;17.842;2022-09-09T00:04:31;2.30;;;0.60;;
14292;SDS011;62290;59.420;17.842;2022-09-09T00:07:03;0.55;;;0.45;;
14292;SDS011;62290;59.420;17.842;2022-09-09T00:09:40;2.33;;;0.40;;
14292;SDS011;62290;59.420;17.842;2022-09-09T00:12:16;0.57;;;0.50;;
14292;SDS011;62290;59.420;17.842;2022-09-09T00:14:50;0.60;;;0.60;;
14292;SDS011;62290;59.420;17.842;2022-09-09T00:17:26;1.77;;;0.50;;
14292;SDS011;62290;59.420;17.842;2022-09-09T00:20:02;0.57;;;0.57;;
14292;SDS011;62290;59.420;17.842;2022-09-09T00:22:39;0.80;;;0.50;;
14292;SDS011;62290;59.420;17.842;2022-09-09T00:25:16;1.13;;;0.35;;
14292;SDS011;62290;59.420;17.842;2022-09-09T00:27:51;0.30;;;0.30;;
14292;SDS011;62290;59.420;17.842;2022-09-09T00:30:19;1.92;;;0.50;;
14292;SDS011;62290;59.420;17.842;2022-09-09T00:32:49;0.60;;;0.40;;
14292;SDS011;62290;59.420;17.842;2022-09-09T00:35:21;1.60;;;0.60;;
14292;SDS011;62290;59.420;17.842;2022-09-09T00:37:52;1.20;;;0.60;;
14292;SDS011;62290;59.420;17.842;2022-09-09T00:40:27;0.50;;;0.50;;
14292;SDS011;62290;59.420;17.842;2022-09-09T00:43:12;2.05;;;0.63;;
14292;SDS011;62290;59.420;17.842;2022-09-09T00:45:54;0.50;;;0.50;;
14292;SDS011;62290;59.420;17.842;2022-09-09T00:48:45;0.47;;;0.38;;
14292;SDS011;62290;59.420;17.842;2022-09-09T00:51:23;1.05;;;0.60;;
14292;SDS011;62290;59.420;17.842;2022-09-09T00:54:10;0.50;;;0.45;;
14292;SDS011;62290;59.420;17.842;2022-09-09T00:56:59;0.43;;;0.40;;
14292;SDS011;62290;59.420;17.842;2022-09-09T00:59:43;0.60;;;0.50;;
14292;SDS011;62290;59.420;17.842;2022-09-09T01:02:18;0.32;;;0.32;;
14292;SDS011;62290;59.420;17.842;2022-09-09T01:04:57;0.50;;;0.50;;
14292;SDS011;62290;59.420;17.842;2022-09-09T01:07:32;1.65;;;0.43;;
14292;SDS011;62290;59.420;17.842;2022-09-09T01:10:00;0.60;;;0.60;;
14292;SDS011;62290;59.420;17.842;2022-09-09T01:12:38;0.60;;;0.50;;
14292;SDS011;62290;59.420;17.842;2022-09-09T01:15:11;0.38;;;0.38;;
14292;SDS011;62290;59.420;17.842;2022-09-09T01:17:50;2.90;;;0.70;;
14292;SDS011;62290;59.420;17.842;2022-09-09T01:20:25;1.40;;;0.30;;
14292;SDS011;62290;59.420;17.842;2022-09-09T01:23:04;0.73;;;0.52;;
14292;SDS011;62290;59.420;17.842;2022-09-09T01:28:50;2.13;;;0.50;;
14292;SDS011;62290;59.420;17.842;2022-09-09T01:31:26;2.53;;;0.60;;
14292;SDS011;62290;59.420;17.842;2022-09-09T01:33:56;0.43;;;0.43;;
14292;SDS011;62290;59.420;17.842;2022-09-09T01:36:26;1.08;;;0.57;;
14292;SDS011;62290;59.420;17.842;2022-09-09T01:39:00;0.88;;;0.63;;
14292;SDS011;62290;59.420;17.842;2022-09-09T01:41:29;1.10;;;0.68;;
14292;SDS011;62290;59.420;17.842;2022-09-09T01:44:07;0.40;;;0.40;;
14292;SDS011;62290;59.420;17.842;2022-09-09T01:46:39;0.77;;;0.55;;
14292;SDS011;62290;59.420;17.842;2022-09-09T01:49:13;0.75;;;0.68;;
14292;SDS011;62290;59.420;17.842;2022-09-09T01:51:41;0.35;;;0.30;;
14292;SDS011;62290;59.420;17.842;2022-09-09T01:54:13;0.85;;;0.60;;
14292;SDS011;62290;59.420;17.842;2022-09-09T01:56:46;1.75;;;0.50;;
14292;SDS011;62290;59.420;17.842;2022-09-09T01:59:22;0.70;;;0.40;;
14292;SDS011;62290;59.420;17.842;2022-09-09T02:02:02;0.50;;;0.47;;
14292;SDS011;62290;59.420;17.842;2022-09-09T02:04:40;0.35;;;0.35;;
14292;SDS011;62290;59.420;17.842;2022-09-09T02:10:08;1.63;;;0.50;;
14292;SDS011;62290;59.420;17.842;2022-09-09T02:12:47;0.55;;;0.40;;
14292;SDS011;62290;59.420;17.842;2022-09-09T02:15:20;1.83;;;0.43;;
14292;SDS011;62290;59.420;17.842;2022-09-09T02:17:51;0.30;;;0.30;;
14292;SDS011;62290;59.420;17.842;2022-09-09T02:20:20;0.30;;;0.30;;
14292;SDS011;62290;59.420;17.842;2022-09-09T02:22:54;1.92;;;0.40;;
14292;SDS011;62290;59.420;17.842;2022-09-09T02:25:25;1.17;;;0.40;;
14292;SDS011;62290;59.420;17.842;2022-09-09T02:28:04;0.80;;;0.50;;
14292;SDS011;62290;59.420;17.842;2022-09-09T02:30:36;0.45;;;0.40;;
14292;SDS011;62290;59.420;17.842;2022-09-09T02:33:07;0.30;;;0.30;;
14292;SDS011;62290;59.420;17.842;2022-09-09T02:35:45;0.75;;;0.40;;
14292;SDS011;62290;59.420;17.842;2022-09-09T02:38:17;0.57;;;0.35;;
14292;SDS011;62290;59.420;17.842;2022-09-09T02:40:56;0.30;;;0.30;;
14292;SDS011;62290;59.420;17.842;2022-09-09T02:43:30;1.13;;;0.50;;
14292;SDS011;62290;59.420;17.842;2022-09-09T02:46:01;1.60;;;0.43;;
14292;SDS011;62290;59.420;17.842;2022-09-09T02:48:36;2.20;;;0.45;;
14292;SDS011;62290;59.420;17.842;2022-09-09T02:51:18;0.90;;;0.60;;
14292;SDS011;62290;59.420;17.842;2022-09-09T02:54:00;0.35;;;0.30;;
14292;SDS011;62290;59.420;17.842;2022-09-09T02:56:37;0.38;;;0.38;;
14292;SDS011;62290;59.420;17.842;2022-09-09T02:59:12;0.57;;;0.30;;
14292;SDS011;62290;59.420;17.842;2022-09-09T03:01:40;2.00;;;0.38;;
14292;SDS011;62290;59.420;17.842;2022-09-09T03:04:09;0.40;;;0.40;;
14292;SDS011;62290;59.420;17.842;2022-09-09T03:06:38;0.55;;;0.40;;
14292;SDS011;62290;59.420;17.842;2022-09-09T03:09:15;1.50;;;0.40;;
14292;SDS011;62290;59.420;17.842;2022-09-09T03:11:43;1.30;;;0.57;;
14292;SDS011;62290;59.420;17.842;2022-09-09T03:14:14;0.60;;;0.50;;
14292;SDS011;62290;59.420;17.842;2022-09-09T03:16:42;1.38;;;0.40;;
14292;SDS011;62290;59.420;17.842;2022-09-09T03:19:11;0.40;;;0.40;;
14292;SDS011;62290;59.420;17.842;2022-09-09T03:21:39;2.38;;;0.43;;
14292;SDS011;62290;59.420;17.842;2022-09-09T03:24:07;0.40;;;0.32;;
14292;SDS011;62290;59.420;17.842;2022-09-09T03:26:36;0.65;;;0.47;;
14292;SDS011;62290;59.420;17.842;2022-09-09T03:29:08;0.30;;;0.30;;
14292;SDS011;62290;59.420;17.842;2022-09-09T03:31:38;0.43;;;0.32;;
14292;SDS011;62290;59.420;17.842;2022-09-09T03:34:06;0.40;;;0.30;;
14292;SDS011;62290;59.420;17.842;2022-09-09T03:36:35;0.30;;;0.30;;
14292;SDS011;62290;59.420;17.842;2022-09-09T03:39:04;0.77;;;0.60;;
14292;SDS011;62290;59.420;17.842;2022-09-09T03:41:32;1.20;;;0.40;;
14292;SDS011;62290;59.420;17.842;2022-09-09T03:44:01;0.50;;;0.50;;
14292;SDS011;62290;59.420;17.842;2022-09-09T03:46:35;1.65;;;0.50;;
14292;SDS011;62290;59.420;17.842;2022-09-09T03:49:06;0.82;;;0.65;;
14292;SDS011;62290;59.420;17.842;2022-09-09T03:51:34;0.45;;;0.45;;
14292;SDS011;62290;59.420;17.842;2022-09-09T03:54:04;1.45;;;0.35;;
14292;SDS011;62290;59.420;17.842;2022-09-09T03:56:35;1.27;;;0.47;;
14292;SDS011;62290;59.420;17.842;2022-09-09T03:59:03;0.73;;;0.50;;
14292;SDS011;62290;59.420;17.842;2022-09-09T04:01:32;1.67;;;0.40;;
14292;SDS011;62290;59.420;17.842;2022-09-09T04:04:00;1.50;;;0.57;;
14292;SDS011;62290;59.420;17.842;2022-09-09T04:06:30;0.70;;;0.30;;
14292;SDS011;62290;59.420;17.842;2022-09-09T04:08:58;0.40;;;0.30;;
14292;SDS011;62290;59.420;17.842;2022-09-09T04:11:26;1.20;;;0.40;;
14292;SDS011;62290;59.420;17.842;2022-09-09T04:13:56;0.52;;;0.40;;
14292;SDS011;62290;59.420;17.842;2022-09-09T04:16:24;0.57;;;0.40;;
14292;SDS011;62290;59.420;17.842;2022-09-09T04:18:52;0.40;;;0.40;;
14292;SDS011;62290;59.420;17.842;2022-09-09T04:21:20;1.92;;;0.50;;
14292;SDS011;62290;59.420;17.842;2022-09-09T04:23:50;0.88;;;0.30;;
14292;SDS011;62290;59.420;17.842;2022-09-09T04:26:19;0.57;;;0.28;;
14292;SDS011;62290;59.420;17.842;2022-09-09T04:28:47;1.50;;;0.73;;
14292;SDS011;62290;59.420;17.842;2022-09-09T04:31:18;0.70;;;0.60;;
14292;SDS011;62290;59.420;17.842;2022-09-09T04:33:52;1.67;;;0.55;;
14292;SDS011;62290;59.420;17.842;2022-09-09T04:36:20;0.55;;;0.38;;
14292;SDS011;62290;59.420;17.842;2022-09-09T04:38:54;3.17;;;0.50;;
14292;SDS011;62290;59.420;17.842;2022-09-09T04:41:22;0.40;;;0.40;;
14292;SDS011;62290;59.420;17.842;2022-09-09T04:43:53;1.85;;;0.98;;
14292;SDS011;62290;59.420;17.842;2022-09-09T04:46:22;1.08;;;0.63;;
14292;SDS011;62290;59.420;17.842;2022-09-09T04:48:50;2.05;;;0.43;;
14292;SDS011;62290;59.420;17.842;2022-09-09T04:51:22;1.83;;;0.90;;
14292;SDS011;62290;59.420;17.842;2022-09-09T04:53:51;1.35;;;0.65;;
14292;SDS011;62290;59.420;17.842;2022-09-09T04:56:21;1.05;;;0.68;;
14292;SDS011;62290;59.420;17.842;2022-09-09T04:58:52;0.90;;;0.40;;
14292;SDS011;62290;59.420;17.842;2022-09-09T05:01:23;1.75;;;0.45;;
14292;SDS011;62290;59.420;17.842;2022-09-09T05:03:56;2.05;;;0.70;;
14292;SDS011;62290;59.420;17.842;2022-09-09T05:06:24;2.20;;;0.70;;
14292;SDS011;62290;59.420;17.842;2022-09-09T05:08:56;1.45;;;0.65;;
14292;SDS011;62290;59.420;17.842;2022-09-09T05:11:29;0.57;;;0.52;;
14292;SDS011;62290;59.420;17.842;2022-09-09T05:14:07;2.13;;;0.82;;
14292;SDS011;62290;59.420;17.842;2022-09-09T05:16:37;0.68;;;0.50;;
14292;SDS011;62290;59.420;17.842;2022-09-09T05:19:06;1.25;;;0.45;;
14292;SDS011;62290;59.420;17.842;2022-09-09T05:21:43;2.15;;;0.50;;
14292;SDS011;62290;59.420;17.842;2022-09-09T05:24:12;1.13;;;0.55;;
14292;SDS011;62290;59.420;17.842;2022-09-09T05:26:43;1.38;;;0.55;;
14292;SDS011;62290;59.420;17.842;2022-09-09T05:29:10;0.88;;;0.60;;
14292;SDS011;62290;59.420;17.842;2022-09-09T05:31:38;1.52;;;0.50;;
14292;SDS011;62290;59.420;17.842;2022-09-09T05:34:11;1.60;;;0.50;;
14292;SDS011;62290;59.420;17.842;2022-09-09T05:36:39;0.98;;;0.50;;
14292;SDS011;62290;59.420;17.842;2022-09-09T05:39:08;1.35;;;0.57;;
14292;SDS011;62290;59.420;17.842;2022-09-09T05:41:38;0.40;;;0.40;;
14292;SDS011;62290;59.420;17.842;2022-09-09T05:44:08;2.15;;;0.77;;
14292;SDS011;62290;59.420;17.842;2022-09-09T05:46:38;2.33;;;0.50;;
14292;SDS011;62290;59.420;17.842;2022-09-09T05:49:06;1.40;;;0.70;;
14292;SDS011;62290;59.420;17.842;2022-09-09T05:51:35;1.95;;;0.60;;
14292;SDS011;62290;59.420;17.842;2022-09-09T05:54:08;2.38;;;0.77;;
14292;SDS011;62290;59.420;17.842;2022-09-09T05:56:41;1.63;;;0.50;;
14292;SDS011;62290;59.420;17.842;2022-09-09T05:59:10;2.53;;;0.47;;
14292;SDS011;62290;59.420;17.842;2022-09-09T06:01:39;2.20;;;0.60;;
14292;SDS011;62290;59.420;17.842;2022-09-09T06:04:13;2.42;;;0.98;;
14292;SDS011;62290;59.420;17.842;2022-09-09T06:06:41;2.65;;;0.80;;
14292;SDS011;62290;59.420;17.842;2022-09-09T06:09:12;1.08;;;0.70;;
14292;SDS011;62290;59.420;17.842;2022-09-09T06:11:42;0.98;;;0.80;;
14292;SDS011;62290;59.420;17.842;2022-09-09T06:14:13;1.30;;;0.65;;
14292;SDS011;62290;59.420;17.842;2022-09-09T06:16:46;2.42;;;0.47;;
14292;SDS011;62290;59.420;17.842;2022-09-09T06:19:20;2.95;;;0.70;;
14292;SDS011;62290;59.420;17.842;2022-09-09T06:21:48;1.13;;;0.30;;
14292;SDS011;62290;59.420;17.842;2022-09-09T06:24:16;4.05;;;0.60;;
14292;SDS011;62290;59.420;17.842;2022-09-09T06:26:45;2.10;;;0.70;;
14292;SDS011;62290;59.420;17.842;2022-09-09T06:29:28;0.50;;;0.30;;
14292;SDS011;62290;59.420;17.842;2022-09-09T06:31:56;1.77;;;0.50;;
14292;SDS011;62290;59.420;17.842;2022-09-09T06:34:25;0.50;;;0.40;;
14292;SDS011;62290;59.420;17.842;2022-09-09T06:36:56;0.95;;;0.43;;
14292;SDS011;62290;59.420;17.842;2022-09-09T06:39:31;0.95;;;0.52;;
14292;SDS011;62290;59.420;17.842;2022-09-09T06:41:59;0.70;;;0.40;;
14292;SDS011;62290;59.420;17.842;2022-09-09T06:44:47;3.22;;;0.40;;
14292;SDS011;62290;59.420;17.842;2022-09-09T06:47:25;4.78;;;0.50;;
14292;SDS011;62290;59.420;17.842;2022-09-09T06:49:56;5.47;;;1.00;;
14292;SDS011;62290;59.420;17.842;2022-09-09T06:52:24;2.42;;;0.40;;
14292;SDS011;62290;59.420;17.842;2022-09-09T06:54:54;1.63;;;0.70;;
14292;SDS011;62290;59.420;17.842;2022-09-09T06:57:24;1.42;;;0.60;;
14292;SDS011;62290;59.420;17.842;2022-09-09T07:00:09;1.77;;;0.40;;
14292;SDS011;62290;59.420;17.842;2022-09-09T07:02:39;1.92;;;0.52;;
14292;SDS011;62290;59.420;17.842;2022-09-09T07:05:08;7.75;;;0.70;;
14292;SDS011;62290;59.420;17.842;2022-09-09T07:07:39;4.95;;;0.50;;
14292;SDS011;62290;59.420;17.842;2022-09-09T07:10:08;2.15;;;0.65;;
14292;SDS011;62290;59.420;17.842;2022-09-09T07:12:36;2.38;;;0.80;;
14292;SDS011;62290;59.420;17.842;2022-09-09T07:15:10;3.47;;;0.40;;
14292;SDS011;62290;59.420;17.842;2022-09-09T07:17:42;0.70;;;0.45;;
14292;SDS011;62290;59.420;17.842;2022-09-09T07:20:10;2.45;;;0.60;;
14292;SDS011;62290;59.420;17.842;2022-09-09T07:22:39;3.40;;;0.60;;
14292;SDS011;62290;59.420;17.842;2022-09-09T07:25:08;3.67;;;0.60;;
14292;SDS011;62290;59.420;17.842;2022-09-09T07:27:36;1.25;;;0.63;;
14292;SDS011;62290;59.420;17.842;2022-09-09T07:30:05;2.45;;;0.55;;
14292;SDS011;62290;59.420;17.842;2022-09-09T07:32:35;2.50;;;0.52;;
14292;SDS011;62290;59.420;17.842;2022-09-09T07:35:04;1.58;;;0.70;;
14292;SDS011;62290;59.420;17.842;2022-09-09T07:37:35;0.82;;;0.60;;
14292;SDS011;62290;59.420;17.842;2022-09-09T07:40:04;1.83;;;0.70;;
14292;SDS011;62290;59.420;17.842;2022-09-09T07:42:33;1.65;;;0.40;;
14292;SDS011;62290;59.420;17.842;2022-09-09T07:45:02;3.10;;;0.40;;
14292;SDS011;62290;59.420;17.842;2022-09-09T07:47:30;0.90;;;0.40;;
14292;SDS011;62290;59.420;17.842;2022-09-09T07:50:00;3.67;;;0.68;;
14292;SDS011;62290;59.420;17.842;2022-09-09T07:52:30;3.33;;;0.75;;
14292;SDS011;62290;59.420;17.842;2022-09-09T07:55:01;2.00;;;0.57;;
14292;SDS011;62290;59.420;17.842;2022-09-09T07:57:31;4.03;;;0.95;;
14292;SDS011;62290;59.420;17.842;2022-09-09T08:00:00;2.10;;;1.00;;
14292;SDS011;62290;59.420;17.842;2022-09-09T08:02:37;1.38;;;0.50;;
14292;SDS011;62290;59.420;17.842;2022-09-09T08:05:08;1.38;;;0.43;;
14292;SDS011;62290;59.420;17.842;2022-09-09T08:07:39;3.50;;;0.65;;
14292;SDS011;62290;59.420;17.842;2022-09-09T08:10:07;5.07;;;0.57;;
14292;SDS011;62290;59.420;17.842;2022-09-09T08:12:37;9.10;;;0.90;;
14292;SDS011;62290;59.420;17.842;2022-09-09T08:15:13;1.20;;;0.40;;
14292;SDS011;62290;59.420;17.842;2022-09-09T08:17:42;3.00;;;0.75;;
14292;SDS011;62290;59.420;17.842;2022-09-09T08:20:13;0.60;;;0.50;;
14292;SDS011;62290;59.420;17.842;2022-09-09T08:22:41;1.58;;;0.80;;
14292;SDS011;62290;59.420;17.842;2022-09-09T08:25:11;0.95;;;0.60;;
14292;SDS011;62290;59.420;17.842;2022-09-09T08:27:39;0.77;;;0.30;;
14292;SDS011;62290;59.420;17.842;2022-09-09T08:30:08;2.00;;;0.60;;
14292;SDS011;62290;59.420;17.842;2022-09-09T08:32:39;2.33;;;0.60;;
14292;SDS011;62290;59.420;17.842;2022-09-09T08:35:13;3.97;;;0.50;;
14292;SDS011;62290;59.420;17.842;2022-09-09T08:37:41;2.55;;;0.40;;
14292;SDS011;62290;59.420;17.842;2022-09-09T08:40:09;1.73;;;0.68;;
14292;SDS011;62290;59.420;17.842;2022-09-09T08:42:48;1.70;;;0.60;;
14292;SDS011;62290;59.420;17.842;2022-09-09T08:45:24;3.45;;;0.50;;
14292;SDS011;62290;59.420;17.842;2022-09-09T08:48:05;0.88;;;0.60;;
14292;SDS011;62290;59.420;17.842;2022-09-09T08:50:46;2.03;;;0.55;;
14292;SDS011;62290;59.420;17.842;2022-09-09T08:53:21;3.17;;;0.88;;
14292;SDS011;62290;59.420;17.842;2022-09-09T08:55:57;1.60;;;0.55;;
14292;SDS011;62290;59.420;17.842;2022-09-09T08:58:48;0.75;;;0.45;;
14292;SDS011;62290;59.420;17.842;2022-09-09T09:01:26;1.17;;;0.43;;
14292;SDS011;62290;59.420;17.842;2022-09-09T09:04:06;0.73;;;0.55;;
14292;SDS011;62290;59.420;17.842;2022-09-09T09:06:45;1.35;;;0.40;;
14292;SDS011;62290;59.420;17.842;2022-09-09T09:09:23;0.88;;;0.50;;
14292;SDS011;62290;59.420;17.842;2022-09-09T09:12:01;3.33;;;0.60;;
14292;SDS011;62290;59.420;17.842;2022-09-09T09:14:35;3.15;;;0.65;;
14292;SDS011;62290;59.420;17.842;2022-09-09T09:17:09;1.60;;;0.50;;
14292;SDS011;62290;59.420;17.842;2022-09-09T09:19:42;3.78;;;0.60;;
14292;SDS011;62290;59.420;17.842;2022-09-09T09:22:16;2.20;;;0.38;;
14292;SDS011;62290;59.420;17.842;2022-09-09T09:24:50;2.25;;;0.70;;
14292;SDS011;62290;59.420;17.842;2022-09-09T09:27:26;1.40;;;0.50;;
14292;SDS011;62290;59.420;17.842;2022-09-09T09:30:00;2.33;;;0.55;;
14292;SDS011;62290;59.420;17.842;2022-09-09T09:32:53;1.20;;;0.35;;
14292;SDS011;62290;59.420;17.842;2022-09-09T09:35:26;2.05;;;0.73;;
14292;SDS011;62290;59.420;17.842;2022-09-09T09:37:56;9.88;;;0.90;;
14292;SDS011;62290;59.420;17.842;2022-09-09T09:40:49;2.80;;;0.40;;
14292;SDS011;62290;59.420;17.842;2022-09-09T09:43:20;1.35;;;0.55;;
14292;SDS011;62290;59.420;17.842;2022-09-09T09:45:51;6.97;;;0.90;;
14292;SDS011;62290;59.420;17.842;2022-09-09T09:48:39;53.85;;;25.13;;
14292;SDS011;62290;59.420;17.842;2022-09-09T09:51:08;132.32;;;74.18;;
14292;SDS011;62290;59.420;17.842;2022-09-09T09:53:40;101.82;;;60.35;;
14292;SDS011;62290;59.420;17.842;2022-09-09T09:56:11;763.00;;;456.75;;
14292;SDS011;62290;59.420;17.842;2022-09-09T09:58:48;481.35;;;274.98;;
14292;SDS011;62290;59.420;17.842;2022-09-09T10:01:22;364.60;;;174.65;;
14292;SDS011;62290;59.420;17.842;2022-09-09T10:03:52;235.73;;;114.15;;
14292;SDS011;62290;59.420;17.842;2022-09-09T10:06:31;165.57;;;79.18;;
14292;SDS011;62290;59.420;17.842;2022-09-09T10:09:02;113.30;;;56.92;;
14292;SDS011;62290;59.420;17.842;2022-09-09T10:11:38;103.60;;;53.25;;
14292;SDS011;62290;59.420;17.842;2022-09-09T10:14:15;74.50;;;38.65;;
14292;SDS011;62290;59.420;17.842;2022-09-09T10:16:55;46.72;;;24.70;;
14292;SDS011;62290;59.420;17.842;2022-09-09T10:19:31;43.20;;;23.13;;
14292;SDS011;62290;59.420;17.842;2022-09-09T10:22:10;35.72;;;17.40;;
14292;SDS011;62290;59.420;17.842;2022-09-09T10:27:53;19.40;;;11.73;;
14292;SDS011;62290;59.420;17.842;2022-09-09T10:30:33;18.00;;;9.50;;
14292;SDS011;62290;59.420;17.842;2022-09-09T10:33:10;18.60;;;8.68;;
14292;SDS011;62290;59.420;17.842;2022-09-09T10:35:51;15.27;;;8.27;;
14292;SDS011;62290;59.420;17.842;2022-09-09T10:38:28;11.95;;;6.75;;
14292;SDS011;62290;59.420;17.842;2022-09-09T10:41:13;14.82;;;6.10;;
14292;SDS011;62290;59.420;17.842;2022-09-09T10:46:52;11.73;;;5.10;;
14292;SDS011;62290;59.420;17.842;2022-09-09T10:49:42;7.63;;;4.47;;
14292;SDS011;62290;59.420;17.842;2022-09-09T10:52:27;7.75;;;4.13;;
14292;SDS011;62290;59.420;17.842;2022-09-09T10:55:00;7.57;;;3.85;;
14292;SDS011;62290;59.420;17.842;2022-09-09T10:57:36;6.45;;;3.80;;
14292;SDS011;62290;59.420;17.842;2022-09-09T11:00:14;7.70;;;2.92;;
14292;SDS011;62290;59.420;17.842;2022-09-09T11:02:45;6.13;;;3.13;;
14292;SDS011;62290;59.420;17.842;2022-09-09T11:05:19;5.60;;;3.38;;
14292;SDS011;62290;59.420;17.842;2022-09-09T11:07:49;8.27;;;3.33;;
14292;SDS011;62290;59.420;17.842;2022-09-09T11:10:24;4.88;;;2.88;;
14292;SDS011;62290;59.420;17.842;2022-09-09T11:13:01;6.50;;;3.13;;
14292;SDS011;62290;59.420;17.842;2022-09-09T11:15:35;4.15;;;2.30;;
14292;SDS011;62290;59.420;17.842;2022-09-09T11:18:07;3.42;;;2.45;;
14292;SDS011;62290;59.420;17.842;2022-09-09T11:20:41;4.07;;;2.17;;
14292;SDS011;62290;59.420;17.842;2022-09-09T11:23:11;6.13;;;2.50;;
14292;SDS011;62290;59.420;17.842;2022-09-09T11:25:45;4.25;;;2.83;;
14292;SDS011;62290;59.420;17.842;2022-09-09T11:28:31;5.57;;;2.80;;
14292;SDS011;62290;59.420;17.842;2022-09-09T11:31:12;4.35;;;2.35;;
14292;SDS011;62290;59.420;17.842;2022-09-09T11:34:04;4.57;;;2.30;;
14292;SDS011;62290;59.420;17.842;2022-09-09T11:36:49;3.03;;;1.70;;
14292;SDS011;62290;59.420;17.842;2022-09-09T11:39:36;2.72;;;2.10;;
14292;SDS011;62290;59.420;17.842;2022-09-09T11:42:24;4.43;;;1.80;;
14292;SDS011;62290;59.420;17.842;2022-09-09T11:44:53;3.42;;;1.73;;
14292;SDS011;62290;59.420;17.842;2022-09-09T11:47:23;4.32;;;1.95;;
14292;SDS011;62290;59.420;17.842;2022-09-09T11:50:06;3.60;;;1.85;;
14292;SDS011;62290;59.420;17.842;2022-09-09T11:52:36;2.45;;;1.20;;
14292;SDS011;62290;59.420;17.842;2022-09-09T11:55:09;3.15;;;1.88;;
14292;SDS011;62290;59.420;17.842;2022-09-09T11:57:38;2.83;;;1.23;;
14292;SDS011;62290;59.420;17.842;2022-09-09T12:00:29;1.95;;;1.20;;
14292;SDS011;62290;59.420;17.842;2022-09-09T12:03:00;2.85;;;1.33;;
14292;SDS011;62290;59.420;17.842;2022-09-09T12:05:35;4.22;;;1.15;;
14292;SDS011;62290;59.420;17.842;2022-09-09T12:08:06;1.52;;;0.90;;
14292;SDS011;62290;59.420;17.842;2022-09-09T12:10:38;2.65;;;1.02;;
14292;SDS011;62290;59.420;17.842;2022-09-09T12:13:08;1.63;;;1.00;;
14292;SDS011;62290;59.420;17.842;2022-09-09T12:15:48;2.28;;;1.02;;
14292;SDS011;62290;59.420;17.842;2022-09-09T12:18:21;2.50;;;1.35;;
14292;SDS011;62290;59.420;17.842;2022-09-09T12:20:53;2.40;;;1.10;;
14292;SDS011;62290;59.420;17.842;2022-09-09T12:23:33;1.98;;;1.00;;
14292;SDS011;62290;59.420;17.842;2022-09-09T12:29:11;3.67;;;1.13;;
14292;SDS011;62290;59.420;17.842;2022-09-09T12:31:51;0.90;;;0.60;;
14292;SDS011;62290;59.420;17.842;2022-09-09T12:34:31;1.33;;;0.73;;
14292;SDS011;62290;59.420;17.842;2022-09-09T12:37:04;1.98;;;0.80;;
14292;SDS011;62290;59.420;17.842;2022-09-09T12:39:41;3.65;;;1.20;;
14292;SDS011;62290;59.420;17.842;2022-09-09T12:42:16;1.55;;;1.08;;
14292;SDS011;62290;59.420;17.842;2022-09-09T12:44:52;2.95;;;0.98;;
14292;SDS011;62290;59.420;17.842;2022-09-09T12:47:24;1.67;;;1.08;;
14292;SDS011;62290;59.420;17.842;2022-09-09T12:50:14;2.45;;;0.80;;
14292;SDS011;62290;59.420;17.842;2022-09-09T12:52:45;1.77;;;0.95;;
14292;SDS011;62290;59.420;17.842;2022-09-09T12:55:16;2.38;;;1.20;;
14292;SDS011;62290;59.420;17.842;2022-09-09T12:57:48;2.10;;;0.85;;
14292;SDS011;62290;59.420;17.842;2022-09-09T13:00:18;1.63;;;1.17;;
14292;SDS011;62290;59.420;17.842;2022-09-09T13:02:51;2.47;;;0.95;;
14292;SDS011;62290;59.420;17.842;2022-09-09T13:05:21;1.45;;;0.82;;
14292;SDS011;62290;59.420;17.842;2022-09-09T13:07:50;4.82;;;1.30;;
14292;SDS011;62290;59.420;17.842;2022-09-09T13:10:21;1.20;;;0.82;;
14292;SDS011;62290;59.420;17.842;2022-09-09T13:13:14;1.08;;;0.80;;
14292;SDS011;62290;59.420;17.842;2022-09-09T13:15:48;3.53;;;0.90;;
14292;SDS011;62290;59.420;17.842;2022-09-09T13:18:21;1.30;;;0.88;;
14292;SDS011;62290;59.420;17.842;2022-09-09T13:20:50;2.63;;;1.00;;
14292;SDS011;62290;59.420;17.842;2022-09-09T13:23:19;2.42;;;1.10;;
14292;SDS011;62290;59.420;17.842;2022-09-09T13:25:55;0.95;;;0.88;;
14292;SDS011;62290;59.420;17.842;2022-09-09T13:28:25;1.13;;;0.85;;
14292;SDS011;62290;59.420;17.842;2022-09-09T13:31:00;0.82;;;0.68;;
14292;SDS011;62290;59.420;17.842;2022-09-09T13:33:32;0.90;;;0.70;;
14292;SDS011;62290;59.420;17.842;2022-09-09T13:36:04;1.13;;;0.70;;
14292;SDS011;62290;59.420;17.842;2022-09-09T13:38:35;3.35;;;0.95;;
14292;SDS011;62290;59.420;17.842;2022-09-09T13:41:06;1.40;;;0.50;;
14292;SDS011;62290;59.420;17.842;2022-09-09T13:43:36;4.05;;;0.90;;
14292;SDS011;62290;59.420;17.842;2022-09-09T13:46:06;0.80;;;0.80;;
14292;SDS011;62290;59.420;17.842;2022-09-09T13:48:55;2.13;;;0.77;;
14292;SDS011;62290;59.420;17.842;2022-09-09T13:54:13;2.75;;;1.00;;
14292;SDS011;62290;59.420;17.842;2022-09-09T13:56:43;2.15;;;1.00;;
14292;SDS011;62290;59.420;17.842;2022-09-09T13:59:12;1.67;;;0.98;;
14292;SDS011;62290;59.420;17.842;2022-09-09T14:01:41;2.65;;;0.93;;
14292;SDS011;62290;59.420;17.842;2022-09-09T14:04:12;1.55;;;0.80;;
14292;SDS011;62290;59.420;17.842;2022-09-09T14:06:40;1.98;;;0.80;;
14292;SDS011;62290;59.420;17.842;2022-09-09T14:09:10;1.00;;;0.52;;
14292;SDS011;62290;59.420;17.842;2022-09-09T14:11:39;1.48;;;0.77;;
14292;SDS011;62290;59.420;17.842;2022-09-09T14:14:08;4.00;;;1.05;;
14292;SDS011;62290;59.420;17.842;2022-09-09T14:16:36;1.98;;;0.85;;
14292;SDS011;62290;59.420;17.842;2022-09-09T14:19:04;2.90;;;0.90;;
14292;SDS011;62290;59.420;17.842;2022-09-09T14:21:33;5.38;;;1.13;;
14292;SDS011;62290;59.420;17.842;2022-09-09T14:24:01;5.05;;;1.20;;
14292;SDS011;62290;59.420;17.842;2022-09-09T14:26:29;5.65;;;1.10;;
14292;SDS011;62290;59.420;17.842;2022-09-09T14:28:57;2.33;;;1.08;;
14292;SDS011;62290;59.420;17.842;2022-09-09T14:31:27;2.15;;;1.10;;
14292;SDS011;62290;59.420;17.842;2022-09-09T14:33:55;5.25;;;1.50;;
14292;SDS011;62290;59.420;17.842;2022-09-09T14:36:23;3.63;;;0.95;;
14292;SDS011;62290;59.420;17.842;2022-09-09T14:38:52;2.88;;;1.20;;
14292;SDS011;62290;59.420;17.842;2022-09-09T14:41:20;2.50;;;1.15;;
14292;SDS011;62290;59.420;17.842;2022-09-09T14:43:49;5.68;;;1.35;;
14292;SDS011;62290;59.420;17.842;2022-09-09T14:46:18;3.55;;;1.15;;
14292;SDS011;62290;59.420;17.842;2022-09-09T14:48:47;2.75;;;1.00;;
14292;SDS011;62290;59.420;17.842;2022-09-09T14:51:17;2.42;;;1.17;;
14292;SDS011;62290;59.420;17.842;2022-09-09T14:53:52;4.05;;;1.15;;
14292;SDS011;62290;59.420;17.842;2022-09-09T14:56:22;1.10;;;0.90;;
14292;SDS011;62290;59.420;17.842;2022-09-09T14:58:52;1.85;;;1.05;;
14292;SDS011;62290;59.420;17.842;2022-09-09T15:01:21;4.43;;;1.10;;
14292;SDS011;62290;59.420;17.842;2022-09-09T15:03:50;3.58;;;1.10;;
14292;SDS011;62290;59.420;17.842;2022-09-09T15:06:19;1.98;;;0.80;;
14292;SDS011;62290;59.420;17.842;2022-09-09T15:08:49;1.35;;;0.90;;
14292;SDS011;62290;59.420;17.842;2022-09-09T15:11:20;2.47;;;1.00;;
14292;SDS011;62290;59.420;17.842;2022-09-09T15:13:50;3.80;;;0.90;;
14292;SDS011;62290;59.420;17.842;2022-09-09T15:16:20;0.82;;;0.82;;
14292;SDS011;62290;59.420;17.842;2022-09-09T15:18:50;1.42;;;0.80;;
14292;SDS011;62290;59.420;17.842;2022-09-09T15:21:21;1.27;;;0.85;;
14292;SDS011;62290;59.420;17.842;2022-09-09T15:23:52;1.65;;;0.77;;
14292;SDS011;62290;59.420;17.842;2022-09-09T15:26:20;4.68;;;1.25;;